createdAt,value
2022-09-06T00:01:55.748Z,1.52
2022-09-06T00:06:55.752Z,1.57
2022-09-06T00:11:55.772Z,1.58
2022-09-06T00:16:55.764Z,1.55
2022-09-06T00:21:55.756Z,1.7
2022-09-06T00:26:55.788Z,1.74
2022-09-06T00:31:55.760Z,1.59
2022-09-06T00:36:55.771Z,1.59
2022-09-06T00:41:55.781Z,1.84
2022-09-06T00:46:55.767Z,1.7
2022-09-06T00:51:55.765Z,1.76
2022-09-06T00:56:55.819Z,1.94
2022-09-06T01:01:55.868Z,1.86
2022-09-06T01:06:55.806Z,1.8
2022-09-06T01:11:55.816Z,1.77
2022-09-06T01:16:55.815Z,1.72
2022-09-06T01:21:55.818Z,1.79
2022-09-06T01:26:55.786Z,1.84
2022-09-06T01:31:55.847Z,1.98
2022-09-06T01:37:09.240Z,2.05
2022-09-06T01:41:55.787Z,1.92
2022-09-06T01:46:55.781Z,1.88
2022-09-06T01:51:55.794Z,1.88
2022-09-06T01:56:55.857Z,1.88
2022-09-06T02:01:55.883Z,1.76
2022-09-06T02:06:55.833Z,1.82
2022-09-06T02:11:55.835Z,2.01
2022-09-06T02:16:55.894Z,2.02
2022-09-06T02:21:55.840Z,2.11
2022-09-06T02:26:55.813Z,2.1
2022-09-06T02:31:55.815Z,2.08
2022-09-06T02:36:55.819Z,2.09
2022-09-06T02:41:55.851Z,2.16
2022-09-06T02:46:57.227Z,2.12
2022-09-06T02:51:55.823Z,2.03
2022-09-06T02:56:55.848Z,2.13
2022-09-06T03:01:55.891Z,2.12
2022-09-06T03:06:55.819Z,2.11
2022-09-06T03:11:55.817Z,2.17
2022-09-06T03:16:55.862Z,2.17
2022-09-06T03:21:55.853Z,2.23
2022-09-06T03:26:55.886Z,2.13
2022-09-06T03:31:55.871Z,2.03
2022-09-06T03:36:55.872Z,2.15
2022-09-06T03:41:55.863Z,2.18
2022-09-06T03:46:55.844Z,2.11
2022-09-06T03:51:55.887Z,2.12
2022-09-06T03:56:55.844Z,2.11
2022-09-06T04:01:55.863Z,2.08
2022-09-06T04:06:55.844Z,2.11
2022-09-06T04:11:55.872Z,2.2
2022-09-06T04:16:55.943Z,2.13
2022-09-06T04:21:55.885Z,2.08
2022-09-06T04:26:55.886Z,2.1
2022-09-06T04:31:55.989Z,2.21
2022-09-06T04:36:55.863Z,2.34
2022-09-06T04:41:55.853Z,2.13
2022-09-06T04:46:56.168Z,2.1
2022-09-06T04:51:55.889Z,2.22
2022-09-06T04:56:55.867Z,2.3
2022-09-06T05:01:55.904Z,2.24
2022-09-06T05:06:55.877Z,2.44
2022-09-06T05:11:55.884Z,2.71
2022-09-06T05:16:55.971Z,2.8
2022-09-06T05:21:55.878Z,2.57
2022-09-06T05:26:55.869Z,2.57
2022-09-06T05:31:56.030Z,2.52
2022-09-06T05:36:55.904Z,2.68
2022-09-06T05:41:55.876Z,3.92
2022-09-06T05:46:55.885Z,4.56
2022-09-06T05:51:55.911Z,4.88
2022-09-06T05:56:55.928Z,3.79
2022-09-06T06:01:55.941Z,3.01
2022-09-06T06:06:55.924Z,2.7
2022-09-06T06:11:55.923Z,2
2022-09-06T06:16:55.976Z,1.53
2022-09-06T06:21:55.925Z,1.25
2022-09-06T06:26:55.906Z,1.11
2022-09-06T06:31:55.951Z,1.23
2022-09-06T06:36:55.916Z,1.52
2022-09-06T06:41:55.932Z,1.35
2022-09-06T06:46:55.947Z,1.26
2022-09-06T06:51:55.924Z,1.23
2022-09-06T06:56:55.925Z,1.18
2022-09-06T07:01:56.034Z,1.01
2022-09-06T07:11:55.925Z,2.38
2022-09-06T07:16:55.937Z,2.5
2022-09-06T07:21:55.946Z,1.77
2022-09-06T07:32:11.485Z,1.79
2022-09-06T07:36:55.989Z,1.5
2022-09-06T07:41:55.960Z,1.62
2022-09-06T07:51:55.957Z,1.1
2022-09-06T07:56:56.003Z,1.17
2022-09-06T08:01:56.016Z,0.92
2022-09-06T08:11:55.987Z,0.89
2022-09-06T08:16:55.962Z,0.85
2022-09-06T08:21:56.006Z,0.83
2022-09-06T08:26:55.967Z,0.82
2022-09-06T08:31:56.003Z,0.75
2022-09-06T08:36:55.969Z,0.65
2022-09-06T08:41:55.966Z,0.59
2022-09-06T08:46:56.023Z,0.57
2022-09-06T08:56:01.540Z,0.55
2022-09-06T09:01:01.583Z,0.71
2022-09-06T09:06:01.538Z,0.86
2022-09-06T09:11:01.552Z,0.98
2022-09-06T09:16:01.581Z,0.99
2022-09-06T09:21:01.573Z,1.04
2022-09-06T09:26:01.564Z,1.1
2022-09-06T09:31:01.599Z,1.35
2022-09-06T09:36:01.569Z,1.18
2022-09-06T09:41:01.579Z,1.07
2022-09-06T09:46:01.562Z,1.01
2022-09-06T09:51:01.552Z,0.89
2022-09-06T09:56:01.607Z,0.86
2022-09-06T10:01:01.625Z,0.77
2022-09-06T10:06:02.301Z,0.76
2022-09-06T10:11:01.600Z,0.73
2022-09-06T10:16:01.595Z,0.75
2022-09-06T10:21:01.571Z,0.88
2022-09-06T10:26:01.582Z,0.88
2022-09-06T10:31:01.679Z,0.87
2022-09-06T10:36:01.581Z,0.66
2022-09-06T10:41:01.595Z,0.79
2022-09-06T10:46:01.648Z,0.74
2022-09-06T10:51:01.598Z,0.71
2022-09-06T10:56:01.748Z,0.6
2022-09-06T11:01:01.597Z,0.64
2022-09-06T11:06:01.610Z,0.69
2022-09-06T11:11:01.609Z,0.61
2022-09-06T11:16:01.658Z,0.59
2022-09-06T11:21:01.615Z,0.62
2022-09-06T11:26:01.644Z,0.67
2022-09-06T11:31:01.669Z,0.79
2022-09-06T11:36:01.628Z,0.64
2022-09-06T11:41:01.625Z,0.72
2022-09-06T11:46:01.672Z,0.77
2022-09-06T11:51:01.669Z,0.68
2022-09-06T11:56:01.631Z,0.67
2022-09-06T12:01:01.643Z,0.7
2022-09-06T12:06:01.656Z,0.8
2022-09-06T12:11:01.666Z,0.74
2022-09-06T12:21:01.674Z,0.6
2022-09-06T12:26:01.697Z,0.81
2022-09-06T12:31:01.742Z,0.71
2022-09-06T12:36:02.329Z,0.75
2022-09-06T12:41:01.657Z,0.68
2022-09-06T12:46:01.687Z,0.7
2022-09-06T12:51:01.671Z,0.71
2022-09-06T12:56:01.702Z,0.57
2022-09-06T13:01:01.665Z,0.54
2022-09-06T13:06:01.680Z,0.48
2022-09-06T13:11:01.680Z,0.69
2022-09-06T13:16:01.767Z,0.64
2022-09-06T13:21:01.677Z,0.65
2022-09-06T13:26:01.686Z,0.64
2022-09-06T13:31:01.792Z,0.6
2022-09-06T13:36:01.707Z,0.53
2022-09-06T13:41:14.795Z,0.47
2022-09-06T13:46:01.717Z,0.62
2022-09-06T13:51:01.691Z,0.66
2022-09-06T13:56:01.711Z,0.72
2022-09-06T14:01:01.736Z,0.71
2022-09-06T14:06:01.722Z,0.7
2022-09-06T14:11:01.753Z,0.65
2022-09-06T14:16:01.773Z,0.95
2022-09-06T14:21:01.729Z,0.94
2022-09-06T14:26:01.763Z,0.76
2022-09-06T14:31:01.772Z,0.54
2022-09-06T14:36:01.774Z,0.84
2022-09-06T14:41:01.734Z,0.83
2022-09-06T14:46:01.797Z,0.74
2022-09-06T14:51:01.748Z,0.79
2022-09-06T14:56:01.782Z,0.76
2022-09-06T15:01:01.807Z,1.06
2022-09-06T15:06:01.786Z,0.9
2022-09-06T15:11:01.765Z,0.81
2022-09-06T15:16:01.863Z,0.84
2022-09-06T15:21:01.758Z,0.8
2022-09-06T15:26:01.796Z,0.85
2022-09-06T15:31:01.771Z,0.77
2022-09-06T15:36:01.776Z,0.89
2022-09-06T15:41:05.020Z,0.84
2022-09-06T15:46:01.827Z,1
2022-09-06T15:51:01.792Z,1.16
2022-09-06T15:56:01.819Z,1.11
2022-09-06T16:01:01.829Z,1.12
2022-09-06T16:06:29.035Z,1.41
2022-09-06T16:16:01.782Z,1.26
2022-09-06T16:21:01.815Z,1.29
2022-09-06T16:26:01.795Z,1.18
2022-09-06T16:31:01.883Z,1.16
2022-09-06T16:36:01.816Z,1.21
2022-09-06T16:41:01.808Z,1.21
2022-09-06T16:46:01.884Z,1.26
2022-09-06T16:51:01.826Z,1.28
2022-09-06T16:56:01.813Z,1.37
2022-09-06T17:01:01.828Z,1.6
2022-09-06T17:06:01.817Z,1.83
2022-09-06T17:11:01.839Z,2.53
2022-09-06T17:16:01.821Z,3.97
2022-09-06T17:21:01.841Z,5.12
2022-09-06T17:26:01.828Z,7.21
2022-09-06T17:31:01.873Z,9.38
2022-09-06T17:36:01.838Z,11.41
2022-09-06T17:41:01.820Z,14.84
2022-09-06T17:46:01.851Z,14.14
2022-09-06T17:51:01.833Z,15.11
2022-09-06T17:56:01.863Z,13.83
2022-09-06T18:01:01.914Z,11.44
2022-09-06T18:06:01.833Z,7.8
2022-09-06T18:11:01.834Z,4.85
2022-09-06T18:16:01.840Z,3.76
2022-09-06T18:21:01.852Z,3.44
2022-09-06T18:26:01.852Z,2.99
2022-09-06T18:31:01.862Z,2.96
2022-09-06T18:36:01.878Z,3.1
2022-09-06T18:41:01.850Z,3.07
2022-09-06T18:46:01.930Z,3.89
2022-09-06T18:51:01.867Z,4.49
2022-09-06T18:56:01.865Z,3.95
2022-09-06T19:01:01.979Z,3.64
2022-09-06T19:06:01.900Z,3.72
2022-09-06T19:11:01.866Z,3.25
2022-09-06T19:16:01.927Z,3.2
2022-09-06T19:21:01.872Z,2.95
2022-09-06T19:26:01.889Z,2.82
2022-09-06T19:31:01.905Z,2.76
2022-09-06T19:36:11.374Z,2.65
2022-09-06T19:41:01.886Z,2.76
2022-09-06T19:46:01.891Z,2.6
2022-09-06T19:51:01.877Z,2.67
2022-09-06T19:56:01.905Z,2.62
2022-09-06T20:01:01.951Z,2.69
2022-09-06T20:06:01.933Z,2.64
2022-09-06T20:11:01.909Z,2.61
2022-09-06T20:16:01.923Z,2.68
2022-09-06T20:21:01.927Z,2.55
2022-09-06T20:26:01.901Z,2.53
2022-09-06T20:31:01.911Z,2.43
2022-09-06T20:36:01.940Z,2.44
2022-09-06T20:41:01.915Z,2.48
2022-09-06T20:46:01.945Z,2.36
2022-09-06T20:51:01.970Z,2.52
2022-09-06T20:56:01.940Z,3.15
2022-09-06T21:01:01.973Z,3.68
2022-09-06T21:06:01.922Z,3.78
2022-09-06T21:11:01.924Z,3.98
2022-09-06T21:16:01.997Z,4.28
2022-09-06T21:21:01.930Z,4.29
2022-09-06T21:26:01.933Z,4.72
2022-09-06T21:31:01.995Z,5.28
2022-09-06T21:36:01.938Z,4.88
2022-09-06T21:41:01.976Z,4.87
2022-09-06T21:46:01.977Z,5.08
2022-09-06T21:51:01.946Z,5.67
2022-09-06T21:56:01.982Z,5.25
2022-09-06T22:01:02.046Z,5.75
2022-09-06T22:06:01.950Z,5.43
2022-09-06T22:11:01.976Z,5.62
2022-09-06T22:16:05.714Z,5.8
2022-09-06T22:21:01.948Z,5.83
2022-09-06T22:26:01.966Z,5.56
2022-09-06T22:31:02.002Z,5.93
2022-09-06T22:36:01.967Z,5.84
2022-09-06T22:41:01.971Z,6.4
2022-09-06T22:46:01.967Z,6.4
2022-09-06T22:51:02.001Z,6.31
2022-09-06T22:56:01.972Z,6.48
2022-09-06T23:01:02.006Z,6.66
2022-09-06T23:06:01.978Z,6.56
2022-09-06T23:11:02.008Z,6.83
2022-09-06T23:16:02.001Z,6.92
2022-09-06T23:21:01.980Z,6.54
2022-09-06T23:26:01.993Z,6.93
2022-09-06T23:31:02.007Z,6.62
2022-09-06T23:36:01.994Z,6.97
2022-09-06T23:41:01.995Z,6.54
2022-09-06T23:46:02.056Z,7.08
2022-09-06T23:51:01.990Z,7.23
2022-09-06T23:56:02.003Z,7.04
